Station info - map view · info · telemetry · weather · raw · status · beacons · messages · bulletins · browse · moving · my account
Callsign, ship name or locator: Clear       
It is possible to search using wildcards (*?) after a prefix. Example: OH*
APRS station WA4UNS-9 - show graphs
Map loading...
Comment: County Hunting info at www.marac.org
Location: 36°17.72' N 81°49.95' W - locator EM96CH00CV - show map - static map
10.3 miles Northwest bearing 302° from Boone, Watauga County, North Carolina, United States [?]
12.5 miles South bearing 187° from Mountain City, Johnson County, Tennessee, United States
62.7 miles Northeast bearing 40° from Asheville, Buncombe County, North Carolina, United States
93.1 miles Northwest bearing 311° from Concord, Cabarrus County, North Carolina, United States
Last position: 2018-04-09 22:00:30 EDT (11d 4h3m ago)
2018-04-09 22:00:30 EDT local time at Boone, United States [?]
Altitude: 3042 ft
Course: 356°
Device: Byonics: TinyTrak (tracker)
Last path: WA4UNS-9>APTT4B via WW4L-1,WIDE1,KI4WXS-5,qAR,AC4ZR-5 (good)
Positions stored: 5758
Stations near current position of WA4UNS-9 - show more
callsign distance last heard - EDT      callsign distance last heard - EDT
N4SCM5.2 miles 131°2018-04-21 01:43:03 KE4AAP5.8 miles 172°2018-04-05 05:43:51
K4DHT-45.9 miles 26°2018-04-21 00:35:35 DW80696.0 miles 216°2018-04-21 01:54:43
EW94646.5 miles 187°2018-04-21 01:55:25 KE4AAP-97.2 miles 163°2018-04-05 20:20:34
KN4AUP7.5 miles 134°2018-04-21 01:45:01 WW4L-17.8 miles 197°2018-04-21 02:04:10
FW07598.0 miles 200°2018-04-21 01:56:55 444.575BM8.1 miles 199°2018-04-21 02:02:10
147.360RM8.9 miles 119°2018-04-21 02:00:10 AL0I-19.5 miles 128°2018-04-21 02:03:48
AL0I-69.5 miles 128°2018-04-09 12:56:52 EW607210.5 miles 126°2018-04-21 01:58:41
EW975611.1 miles 91°2018-04-21 02:02:07 NC4GR11.1 miles 91°2018-04-10 11:23:39
CW240313.1 miles 159°2018-04-21 01:49:46 EW608813.3 miles 153°2018-04-21 02:03:10
WA4NC14.1 miles 131°2018-04-06 11:23:56 EW388514.6 miles 128°2018-04-21 02:00:14
Stations which heard WA4UNS-9 directly on radio –
callsign pkts first heard - EDT last heard longest (tx => rx) longest at - EDT
W3UD-3 3 2018-04-05 18:57:12 2018-04-09 10:41:05 FM29FQ > FM29CQ 9.4 miles 270° 2018-04-09 09:42:48
N3KTX-7 24 2018-04-05 17:46:48 2018-04-09 12:05:16 FM29BE > FM18XW 20.0 miles 205° 2018-04-05 18:10:58
N3XJT-1 19 2018-04-05 18:25:02 2018-04-09 11:17:08 FM29FQ > FM29AN 22.6 miles 248° 2018-04-05 19:13:14
K4EME-3 10 2018-04-05 11:48:20 2018-04-09 17:25:47 FM08NA > FM08ID 25.2 miles 290° 2018-04-05 12:20:21
K4FDS-5 3 2018-04-05 10:42:20 2018-04-05 10:52:20 EM97WH > FM07AG 9.8 miles 107° 2018-04-05 10:42:20
K4DHT-4 13 2018-04-05 06:40:15 2018-04-09 21:51:51 EM96CG > EM96CI 7.2 miles 349° 2018-04-09 21:21:51
KA2RLM-15 4 2018-04-05 20:07:17 2018-04-09 08:43:26 FN20OB > FN20RJ 24.0 miles 22° 2018-04-09 08:43:26
N3UJJ-6 28 2018-04-05 16:58:37 2018-04-09 12:47:24 FM18RW > FM18SX 5.5 miles 43° 2018-04-09 12:43:17
N3FCX 5 2018-04-05 19:33:15 2018-04-09 09:37:40 FM29FQ > FM29IV 18.7 miles 38° 2018-04-09 09:37:40
KC2QVT-15 22 2018-04-05 20:10:18 2018-04-09 08:54:00 FM29NX > FM29QX 14.4 miles 88° 2018-04-09 08:54:00
KJ4RPW-3 18 2018-04-05 12:16:21 2018-04-09 16:53:37 FM08MB > FM07SX 25.6 miles 101° 2018-04-05 12:16:21
K4FDS 2 2018-04-09 18:15:47 2018-04-09 18:17:47 FM07AI > FM07AI 2.3 miles 219° 2018-04-09 18:15:47
KA3OCS 6 2018-04-05 15:32:37 2018-04-09 14:10:38 FM18NJ > FM18NE 16.6 miles 178° 2018-04-09 13:58:02
W4VA-10 1 2018-04-05 14:30:30 2018-04-05 14:30:30 FM18FG > FM18BR 33.8 miles 335° 2018-04-05 14:30:30
AE4ML-1 8 2018-04-05 14:34:31 2018-04-09 15:03:23 FM18FG > FM18GH 3.7 miles 81° 2018-04-05 14:34:31
NR3I 30 2018-04-05 19:11:13 2018-04-09 10:33:02 FM29FQ > FM29ER 6.1 miles 304° 2018-04-05 19:17:13
CLAYTN 4 2018-04-05 19:20:14 2018-04-09 09:02:57 FM29FQ > FM29KQ 22.3 miles 92° 2018-04-05 19:20:14
KD4BNQ-3 12 2018-04-05 08:54:16 2018-04-09 19:31:04 EM96LW > EM97RI 39.8 miles 46° 2018-04-05 08:54:16
W3BBL-1 1 2018-04-05 12:32:26 2018-04-05 12:32:26 DP61CX > FN10EQ 1930.2 miles 125° 2018-04-05 12:32:26
N3XKU-7 4 2018-04-05 20:17:17 2018-04-09 08:38:44 FN20OB > FN20NE 8.0 miles 323° 2018-04-05 20:21:17
W3SMD-1 17 2018-04-09 13:11:19 2018-04-09 13:43:21 FM18QP > FM18PL 12.5 miles 204° 2018-04-09 13:11:19
NO3B-10 2 2018-04-05 15:00:34 2018-04-09 14:41:22 FM18JG > FM18JG 2.1 miles 156° 2018-04-05 15:00:34
BRISTL 5 2018-04-05 20:15:17 2018-04-09 08:44:45 FN20NA > FN20NC 4.3 miles 346° 2018-04-09 08:44:45
K4PAY-5 2 2018-04-05 07:58:16 2018-04-05 08:04:16 EM96FT > EM96FT 2.6 miles 63° 2018-04-05 07:58:16
KF4YLM-1 54 2018-04-05 08:32:15 2018-04-09 19:35:48 EM96LW > EM97WE 52.5 miles 71° 2018-04-05 09:26:16
K3ARS-2 3 2018-04-05 17:36:45 2018-04-05 17:52:49 FM18TX > FM19VD 12.6 miles 38° 2018-04-05 17:36:45
W4DWN-5 4 2018-04-05 07:48:15 2018-04-09 20:21:49 EM96ET > EM96DT 5.2 miles 257° 2018-04-05 07:56:15
KK4NDE-2 7 2018-04-05 15:14:36 2018-04-09 14:21:22 FM18NJ > FM18LJ 7.2 miles 249° 2018-04-09 13:57:22
WW4L-1 13 2018-04-05 06:24:48 2018-04-09 21:57:51 EM96CK > EM96BE 18.7 miles 193° 2018-04-05 06:58:16
K3PDR-3 12 2018-04-05 19:45:16 2018-04-09 09:12:59 FN20PB > FN20JB 26.6 miles 270° 2018-04-09 08:28:44
W2MER 1 2018-04-05 20:34:05 2018-04-05 20:34:05 FN20OB > FN20PG 14.1 miles 16° 2018-04-05 20:34:05
W4KEL-12 29 2018-04-05 12:30:22 2018-04-09 16:33:35 FM18IG > FM08QH 72.3 miles 272° 2018-04-05 14:54:34
K3HKI-1 19 2018-04-05 15:30:37 2018-04-09 13:46:23 FM18TX > FM18QJ 43.4 miles 200° 2018-04-05 17:38:45

Only position packets which were originated by the station are shown here. The range statistics show some extra long hops, because some digipeaters do not correctly add themselves to the digipeater path. Please check the raw packets.
About this site
This page shows real-time information collected from the Automatic Position Reporting System Internet network (APRS-IS). APRS is used by amateur (ham) radio operators to transmit real-time position information, weather data, telemetry and messages over the radio. A vehicle equipped with a GPS receiver, a VHF transmitter or HF transceiver and a small computer device called a tracker transmits it's location, speed and course in a small data packet, which is then received by a nearby iGate receiving site which forwards the packet on the Internet. Systems connected to the Internet can send information on the APRS-IS without a radio transmitter, or collect and display information transmitted anywhere in the world.
FAQ · Blog · Discussion group · Linking to aprs.fi · AIS sites · Service status · Database statistics · Advertising on aprs.fi · Technical details · API · Change log · Planned changes · Credits and thanks · Terms Of Service · iPhone/iPad APRS